Time;durP1;ratioP1;P1;durP2;ratioP2;P2;SDS_P1;SDS_P2;PMS_P1;PMS_P2;Temp;Humidity;BMP_temperature;BMP_pressure;BME280_temperature;BME280_humidity;BME280_pressure;Samples;Min_cycle;Max_cycle;Signal;HPM_P1;HPM_P2
2023/04/04 00:00:11;;;;;;;4.95;3.00;;;20.60;29.50;;;;;;5057144;28;20082;-48
2023/04/04 00:02:37;;;;;;;5.13;3.30;;;20.60;29.50;;;;;;5048675;28;20070;-46
2023/04/04 00:05:04;;;;;;;5.57;3.22;;;20.60;29.50;;;;;;5056851;28;20032;-47
2023/04/04 00:07:30;;;;;;;3.88;2.78;;;20.60;29.50;;;;;;5051390;28;20040;-51
2023/04/04 00:09:56;;;;;;;3.55;2.40;;;20.60;29.50;;;;;;5052790;28;20029;-47
2023/04/04 00:12:23;;;;;;;3.63;2.50;;;20.60;29.50;;;;;;5052146;28;20036;-46
2023/04/04 00:14:49;;;;;;;4.07;2.78;;;20.60;29.50;;;;;;5058954;28;20083;-46
2023/04/04 00:17:15;;;;;;;3.47;2.33;;;20.60;29.50;;;;;;5051101;28;20043;-49
2023/04/04 00:19:41;;;;;;;3.35;2.60;;;20.50;29.50;;;;;;5052919;28;20025;-50
2023/04/04 00:22:07;;;;;;;4.47;2.75;;;20.60;29.50;;;;;;5057714;28;20027;-46
2023/04/04 00:24:33;;;;;;;4.68;2.83;;;20.50;29.50;;;;;;5053332;28;20384;-50
2023/04/04 00:26:59;;;;;;;3.50;2.38;;;20.50;29.50;;;;;;5053653;28;20412;-46
2023/04/04 00:29:25;;;;;;;4.30;2.88;;;20.50;29.50;;;;;;5054060;28;20021;-48
2023/04/04 00:31:51;;;;;;;3.30;2.35;;;20.50;29.50;;;;;;5052951;28;20029;-48
2023/04/04 00:34:17;;;;;;;3.55;2.42;;;20.50;29.50;;;;;;5051888;28;20103;-45
2023/04/04 00:36:42;;;;;;;2.95;2.00;;;20.50;29.50;;;;;;5057200;28;20029;-50
2023/04/04 00:39:08;;;;;;;3.20;2.38;;;20.50;29.50;;;;;;5044207;28;20057;-50
2023/04/04 00:41:35;;;;;;;4.40;2.40;;;20.50;29.50;;;;;;5055117;28;20021;-48
2023/04/04 00:44:00;;;;;;;2.95;2.20;;;20.50;29.50;;;;;;5060794;28;20078;-51
2023/04/04 00:46:28;;;;;;;3.55;2.20;;;20.50;29.50;;;;;;5053771;28;20402;-51
2023/04/04 00:48:54;;;;;;;3.47;2.03;;;20.50;29.50;;;;;;5055623;28;20036;-52
2023/04/04 00:51:20;;;;;;;3.00;2.13;;;20.50;29.50;;;;;;5051892;28;20109;-45
2023/04/04 00:53:47;;;;;;;3.65;2.30;;;20.50;29.50;;;;;;5052603;28;20452;-47
2023/04/04 00:56:14;;;;;;;3.30;2.25;;;20.50;29.50;;;;;;5053502;28;20459;-48
2023/04/04 00:58:42;;;;;;;3.33;2.53;;;20.50;29.50;;;;;;5052956;28;20032;-48
2023/04/04 01:01:11;;;;;;;3.67;2.10;;;20.50;29.50;;;;;;5048827;28;20032;-49
2023/04/04 01:03:38;;;;;;;3.78;2.10;;;20.50;29.50;;;;;;5049325;28;20040;-46
2023/04/04 01:06:06;;;;;;;2.92;2.00;;;20.50;29.50;;;;;;5049705;28;20729;-48
2023/04/04 01:08:33;;;;;;;2.58;1.80;;;20.50;29.60;;;;;;5048818;28;20123;-45
2023/04/04 01:10:59;;;;;;;2.78;1.90;;;20.40;29.50;;;;;;5048910;28;20490;-46
2023/04/04 01:13:26;;;;;;;4.03;1.88;;;20.50;29.60;;;;;;5049498;28;20116;-46
2023/04/04 01:15:52;;;;;;;3.60;1.90;;;20.50;29.60;;;;;;5042383;28;20044;-51
2023/04/04 01:18:21;;;;;;;3.55;2.10;;;20.40;29.60;;;;;;5045526;28;20021;-48
2023/04/04 01:21:02;;;;;;;2.85;1.80;;;20.40;29.60;;;;;;5055320;28;20017;-46
2023/04/04 01:23:49;;;;;;;3.67;2.10;;;20.40;29.60;;;;;;5057436;28;20048;-49
2023/04/04 01:26:15;;;;;;;3.10;1.80;;;20.40;29.60;;;;;;5053399;28;20033;-44
2023/04/04 01:28:41;;;;;;;3.05;1.70;;;20.40;29.60;;;;;;5056126;28;20086;-49
2023/04/04 01:31:14;;;;;;;2.97;1.65;;;20.40;29.60;;;;;;5053358;28;20028;-51
2023/04/04 01:33:49;;;;;;;3.67;1.63;;;20.40;29.60;;;;;;5056941;28;20027;-51
2023/04/04 01:36:24;;;;;;;;;;;20.40;29.60;;;;;;5056410;28;20437;-51
2023/04/04 01:39:14;;;;;;;3.92;1.60;;;20.40;29.60;;;;;;5061232;28;20415;-51
2023/04/04 01:41:41;;;;;;;2.83;1.83;;;20.40;29.60;;;;;;5049999;28;20032;-46
2023/04/04 01:44:09;;;;;;;2.80;1.70;;;20.40;29.60;;;;;;5059670;28;20516;-49
2023/04/04 01:46:35;;;;;;;2.63;1.83;;;20.40;29.70;;;;;;5054256;28;20072;-48
2023/04/04 01:49:03;;;;;;;2.47;1.60;;;20.40;29.70;;;;;;5048498;28;20106;-53
2023/04/04 01:51:33;;;;;;;3.55;1.70;;;20.40;29.70;;;;;;5054562;28;20059;-46
2023/04/04 01:53:58;;;;;;;2.08;1.45;;;20.40;29.70;;;;;;5051611;28;20029;-48
2023/04/04 01:56:24;;;;;;;4.13;1.65;;;20.40;29.70;;;;;;5054580;28;20082;-45
2023/04/04 01:58:52;;;;;;;3.00;1.67;;;20.40;29.70;;;;;;5058984;28;20032;-45
2023/04/04 02:01:18;;;;;;;2.25;1.60;;;20.40;29.70;;;;;;5063506;28;20070;-49
2023/04/04 02:03:44;;;;;;;2.13;1.40;;;20.40;29.70;;;;;;5055637;28;20411;-47
2023/04/04 02:06:10;;;;;;;2.55;1.40;;;20.40;29.70;;;;;;5051661;28;20041;-48
2023/04/04 02:08:37;;;;;;;2.72;1.40;;;20.40;29.70;;;;;;5075308;28;20449;-49
2023/04/04 02:11:03;;;;;;;2.22;1.40;;;20.40;29.60;;;;;;5055936;28;20112;-52
2023/04/04 02:13:29;;;;;;;2.25;1.50;;;20.40;29.60;;;;;;5051123;28;20119;-48
2023/04/04 02:15:57;;;;;;;2.25;1.30;;;20.30;29.60;;;;;;5058911;28;20101;-49
2023/04/04 02:18:23;;;;;;;2.85;1.50;;;20.40;29.60;;;;;;5052201;28;20016;-50
2023/04/04 02:20:59;;;;;;;2.20;1.05;;;20.30;29.60;;;;;;5054269;28;20029;-48
2023/04/04 02:23:24;;;;;;;2.10;1.27;;;20.30;29.60;;;;;;5050728;28;20044;-48
2023/04/04 02:25:50;;;;;;;2.35;1.30;;;20.30;29.60;;;;;;5054722;28;20049;-50
2023/04/04 02:28:16;;;;;;;1.90;1.38;;;20.30;29.60;;;;;;5057031;28;20021;-47
2023/04/04 02:30:42;;;;;;;1.83;1.25;;;20.30;29.60;;;;;;5061397;28;20037;-48
2023/04/04 02:33:08;;;;;;;2.22;1.20;;;20.30;29.60;;;;;;5055955;28;20037;-47
2023/04/04 02:35:34;;;;;;;3.28;1.30;;;20.30;29.60;;;;;;5051560;28;20460;-50
2023/04/04 02:37:59;;;;;;;2.45;1.30;;;20.30;29.60;;;;;;5055671;28;20021;-50
2023/04/04 02:40:38;;;;;;;2.00;1.27;;;20.30;29.60;;;;;;5056300;28;20033;-51
2023/04/04 02:43:04;;;;;;;1.75;1.30;;;20.30;29.60;;;;;;5056446;28;20103;-54
2023/04/04 02:45:31;;;;;;;2.28;1.27;;;20.30;29.60;;;;;;5059951;28;20440;-48
2023/04/04 02:48:06;;;;;;;2.20;1.27;;;20.30;29.50;;;;;;5057995;28;20025;-44
2023/04/04 02:50:42;;;;;;;1.77;1.13;;;20.30;29.60;;;;;;5054243;28;20025;-47
2023/04/04 02:53:11;;;;;;;2.45;1.23;;;20.30;29.50;;;;;;5075191;28;20044;-50
2023/04/04 02:55:37;;;;;;;2.08;1.20;;;20.30;29.50;;;;;;5056628;28;20025;-48
2023/04/04 02:58:02;;;;;;;2.22;1.20;;;20.30;29.50;;;;;;5049194;28;20021;-49
2023/04/04 03:00:28;;;;;;;1.92;1.15;;;20.20;29.50;;;;;;5056094;28;20025;-45
2023/04/04 03:02:55;;;;;;;2.92;1.60;;;20.20;29.50;;;;;;5057408;28;20124;-45
2023/04/04 03:05:26;;;;;;;3.40;1.27;;;20.30;29.50;;;;;;5057846;28;20455;-46
2023/04/04 03:07:55;;;;;;;2.17;1.20;;;20.30;29.50;;;;;;5058037;28;20062;-46
2023/04/04 03:10:22;;;;;;;2.28;1.30;;;20.20;29.50;;;;;;5051667;28;20032;-46
2023/04/04 03:12:48;;;;;;;1.95;1.17;;;20.20;29.50;;;;;;5065024;28;20445;-48
2023/04/04 03:15:14;;;;;;;1.98;1.00;;;20.20;29.50;;;;;;5060354;28;20416;-51
2023/04/04 03:17:40;;;;;;;1.92;1.27;;;20.20;29.40;;;;;;5053505;28;20063;-47
2023/04/04 03:20:06;;;;;;;2.03;0.90;;;20.20;29.40;;;;;;5054713;28;20028;-50
2023/04/04 03:22:32;;;;;;;3.38;1.27;;;20.20;29.40;;;;;;5052414;28;20033;-48
2023/04/04 03:25:00;;;;;;;1.70;1.00;;;20.20;29.40;;;;;;5054383;28;20032;-53
2023/04/04 03:27:27;;;;;;;2.08;1.20;;;20.20;29.40;;;;;;5060275;28;20024;-48
2023/04/04 03:29:53;;;;;;;1.73;1.30;;;20.20;29.40;;;;;;5054767;28;20380;-49
2023/04/04 03:32:19;;;;;;;1.95;1.20;;;20.20;29.50;;;;;;5056071;28;20040;-52
2023/04/04 03:34:45;;;;;;;1.70;1.10;;;20.20;29.40;;;;;;5061156;28;20020;-49
2023/04/04 03:37:11;;;;;;;1.60;0.90;;;20.20;29.40;;;;;;5055521;28;20039;-50
2023/04/04 03:39:37;;;;;;;2.22;1.13;;;20.20;29.40;;;;;;5039363;28;20016;-50
2023/04/04 03:42:03;;;;;;;2.17;1.10;;;20.20;29.40;;;;;;5056370;28;20392;-51
2023/04/04 03:44:29;;;;;;;1.75;1.00;;;20.20;29.40;;;;;;5041834;28;20060;-49
2023/04/04 03:46:55;;;;;;;1.05;0.90;;;20.20;29.50;;;;;;5060467;28;20025;-51
2023/04/04 03:49:22;;;;;;;2.90;1.40;;;20.20;29.40;;;;;;5046617;28;20071;-52
2023/04/04 03:51:48;;;;;;;2.47;1.02;;;20.20;29.40;;;;;;5073209;28;20477;-52
2023/04/04 03:54:14;;;;;;;1.40;0.88;;;20.20;29.40;;;;;;5062628;28;20021;-54
2023/04/04 03:56:40;;;;;;;1.83;1.10;;;20.20;29.40;;;;;;5062665;28;20329;-53
2023/04/04 03:59:06;;;;;;;1.35;1.00;;;20.20;29.90;;;;;;5053832;28;20368;-50
2023/04/04 04:01:32;;;;;;;3.90;1.10;;;20.10;29.40;;;;;;5055120;28;20116;-47
2023/04/04 04:04:00;;;;;;;2.08;1.15;;;20.10;29.30;;;;;;5055796;28;20117;-49
2023/04/04 04:06:26;;;;;;;2.10;1.13;;;20.20;29.40;;;;;;5047132;28;20052;-47
2023/04/04 04:08:52;;;;;;;1.38;0.82;;;20.10;29.30;;;;;;5046479;28;20037;-47
2023/04/04 04:11:18;;;;;;;1.92;1.05;;;20.10;29.30;;;;;;5052371;28;20025;-48
2023/04/04 04:13:44;;;;;;;1.73;0.90;;;20.10;29.30;;;;;;5058140;28;21812;-47
2023/04/04 04:16:10;;;;;;;2.80;0.93;;;20.20;29.40;;;;;;5058570;28;20097;-46
2023/04/04 04:18:36;;;;;;;1.45;0.93;;;20.10;29.30;;;;;;5052328;28;20107;-48
2023/04/04 04:21:04;;;;;;;3.97;0.95;;;20.10;29.80;;;;;;5056767;28;20032;-46
2023/04/04 04:23:32;;;;;;;1.73;1.05;;;20.10;29.30;;;;;;5053371;28;20125;-48
2023/04/04 04:25:58;;;;;;;1.98;1.10;;;20.10;29.30;;;;;;5059854;28;20480;-49
2023/04/04 04:28:26;;;;;;;1.65;1.00;;;20.10;29.30;;;;;;5050383;28;20093;-48
2023/04/04 04:30:52;;;;;;;1.05;0.70;;;20.10;29.80;;;;;;5048052;28;20035;-48
2023/04/04 04:33:30;;;;;;;1.77;0.93;;;20.10;29.30;;;;;;5051037;28;20090;-50
2023/04/04 04:36:03;;;;;;;1.60;0.80;;;20.10;29.30;;;;;;5043283;28;20044;-48
2023/04/04 04:38:39;;;;;;;2.53;1.00;;;20.10;29.30;;;;;;5056086;28;20033;-48
2023/04/04 04:41:05;;;;;;;1.65;0.90;;;20.10;29.30;;;;;;5059866;28;20057;-49
2023/04/04 04:43:40;;;;;;;1.98;1.00;;;20.10;29.30;;;;;;5052192;28;20082;-48
2023/04/04 04:46:07;;;;;;;1.02;0.85;;;20.00;29.30;;;;;;5057994;28;20056;-47
2023/04/04 04:48:34;;;;;;;1.40;0.90;;;20.00;29.20;;;;;;5072572;28;20032;-50
2023/04/04 04:51:00;;;;;;;1.63;1.00;;;20.10;29.30;;;;;;5073190;28;20022;-46
2023/04/04 04:53:35;;;;;;;1.60;0.80;;;20.10;29.30;;;;;;5052003;28;20024;-44
2023/04/04 04:56:02;;;;;;;1.80;1.02;;;20.10;29.30;;;;;;5055684;28;20322;-46
2023/04/04 04:58:29;;;;;;;1.25;0.80;;;20.10;29.20;;;;;;5049885;28;20063;-52
2023/04/04 05:00:57;;;;;;;1.60;0.80;;;20.10;29.20;;;;;;5058087;28;20415;-50
2023/04/04 05:03:25;;;;;;;1.55;0.98;;;20.00;29.20;;;;;;5049966;28;20071;-47
2023/04/04 05:05:51;;;;;;;1.45;0.77;;;20.00;29.20;;;;;;5049321;28;20053;-48
2023/04/04 05:08:17;;;;;;;1.73;0.90;;;20.10;29.30;;;;;;5052042;28;20069;-50
2023/04/04 05:10:55;;;;;;;2.05;1.05;;;20.00;29.30;;;;;;5048192;28;20359;-45
2023/04/04 05:13:25;;;;;;;2.40;0.90;;;20.00;29.40;;;;;;5061546;28;20021;-49
2023/04/04 05:15:51;;;;;;;2.38;0.90;;;20.00;29.40;;;;;;5051110;28;20032;-51
2023/04/04 05:18:19;;;;;;;1.85;0.70;;;20.00;29.40;;;;;;5052082;28;20396;-50
2023/04/04 05:20:53;;;;;;;2.17;1.20;;;20.00;29.40;;;;;;5055286;28;20119;-47
2023/04/04 05:23:20;;;;;;;2.00;0.95;;;20.00;29.30;;;;;;5054401;28;20321;-48
2023/04/04 05:25:50;;;;;;;1.55;0.70;;;20.00;29.30;;;;;;5053579;28;20028;-49
2023/04/04 05:28:17;;;;;;;1.88;0.82;;;20.00;29.30;;;;;;5054051;28;20115;-51
2023/04/04 05:30:43;;;;;;;1.33;0.88;;;20.00;29.20;;;;;;5056803;28;20129;-50
2023/04/04 05:33:14;;;;;;;2.40;1.30;;;20.00;29.10;;;;;;5054475;28;20024;-46
2023/04/04 05:35:45;;;;;;;2.40;0.93;;;20.00;29.00;;;;;;5051462;28;20068;-46
2023/04/04 05:38:12;;;;;;;2.35;1.00;;;20.00;29.00;;;;;;5076211;28;20460;-46
2023/04/04 05:40:38;;;;;;;2.67;1.02;;;20.00;28.90;;;;;;5047572;28;20029;-50
2023/04/04 05:43:09;;;;;;;2.05;0.88;;;20.00;28.80;;;;;;5050664;28;20075;-50
2023/04/04 05:45:45;;;;;;;2.88;1.10;;;20.00;28.80;;;;;;5073394;28;20048;-46
2023/04/04 05:48:12;;;;;;;1.05;0.70;;;20.00;28.70;;;;;;5057986;28;20032;-51
2023/04/04 05:50:47;;;;;;;2.33;0.90;;;20.00;28.70;;;;;;5049119;28;20116;-51
2023/04/04 05:53:14;;;;;;;1.50;0.90;;;20.00;28.70;;;;;;5055998;28;20024;-50
2023/04/04 05:55:43;;;;;;;1.38;0.90;;;20.00;29.20;;;;;;5059025;28;20379;-52
2023/04/04 05:58:09;;;;;;;2.13;0.90;;;20.00;29.10;;;;;;5057976;28;20025;-48
2023/04/04 06:00:45;;;;;;;1.95;0.90;;;20.10;28.60;;;;;;5049615;28;20395;-45
2023/04/04 06:03:12;;;;;;;1.67;0.90;;;20.00;28.50;;;;;;5060072;28;20020;-52
2023/04/04 06:05:41;;;;;;;1.30;0.77;;;20.10;28.50;;;;;;5054289;28;20033;-50
2023/04/04 06:08:06;;;;;;;1.58;1.00;;;20.10;28.50;;;;;;5055521;28;20098;-52
2023/04/04 06:10:32;;;;;;;1.55;0.90;;;20.20;28.50;;;;;;5053050;28;20049;-49
2023/04/04 06:12:59;;;;;;;3.33;1.02;;;20.10;28.40;;;;;;5071372;28;20419;-48
2023/04/04 06:15:25;;;;;;;2.40;1.00;;;20.10;28.40;;;;;;5052011;28;20029;-47
2023/04/04 06:17:51;;;;;;;1.05;0.68;;;20.20;28.40;;;;;;5047932;28;20036;-49
2023/04/04 06:20:19;;;;;;;1.85;0.93;;;20.20;28.30;;;;;;5056044;28;20060;-53
2023/04/04 06:22:46;;;;;;;2.75;0.88;;;20.20;28.80;;;;;;5055901;28;20025;-48
2023/04/04 06:25:13;;;;;;;1.90;0.80;;;20.30;28.30;;;;;;5059609;28;20470;-48
2023/04/04 06:27:39;;;;;;;1.58;0.82;;;20.30;28.30;;;;;;5056024;28;20079;-50
2023/04/04 06:30:07;;;;;;;1.58;0.80;;;20.30;28.30;;;;;;5054685;28;20043;-45
2023/04/04 06:32:33;;;;;;;1.65;0.80;;;20.40;28.30;;;;;;5053254;28;21727;-50
2023/04/04 06:35:01;;;;;;;2.35;0.93;;;20.40;28.30;;;;;;5051616;28;20117;-47
2023/04/04 06:37:38;;;;;;;2.67;1.08;;;20.40;28.20;;;;;;5050796;28;20108;-47
2023/04/04 06:40:16;;;;;;;2.47;1.00;;;20.40;28.20;;;;;;5042685;28;20032;-50
2023/04/04 06:42:51;;;;;;;2.28;0.88;;;20.40;28.20;;;;;;5033676;28;20048;-46
2023/04/04 06:45:18;;;;;;;1.80;1.00;;;20.50;28.30;;;;;;5047211;28;20591;-48
2023/04/04 06:47:44;;;;;;;3.00;1.20;;;20.50;28.30;;;;;;5049205;28;20111;-50
2023/04/04 06:50:10;;;;;;;2.85;1.30;;;20.50;28.30;;;;;;5044376;28;20029;-51
2023/04/04 06:52:37;;;;;;;2.80;1.35;;;20.50;28.30;;;;;;5046692;28;20143;-45
2023/04/04 06:55:10;;;;;;;4.45;1.40;;;20.50;28.30;;;;;;5037407;28;20036;-48
2023/04/04 06:57:37;;;;;;;4.50;1.52;;;20.60;28.30;;;;;;5050810;28;20115;-55
2023/04/04 07:00:04;;;;;;;2.22;1.70;;;20.60;28.30;;;;;;5046486;28;20025;-49
2023/04/04 07:02:33;;;;;;;5.30;2.35;;;20.60;28.30;;;;;;5043256;28;20419;-51
2023/04/04 07:04:59;;;;;;;4.85;2.30;;;20.60;28.30;;;;;;5041513;28;20125;-49
2023/04/04 07:07:25;;;;;;;5.15;3.15;;;20.60;28.30;;;;;;5053329;28;20368;-50
2023/04/04 07:09:51;;;;;;;5.55;3.40;;;20.70;28.50;;;;;;5055592;28;20025;-51
2023/04/04 07:12:17;;;;;;;6.20;3.67;;;20.70;28.40;;;;;;5051086;28;20031;-50
2023/04/04 07:14:42;;;;;;;5.03;3.13;;;20.70;28.40;;;;;;5043447;28;20118;-49
2023/04/04 07:17:09;;;;;;;6.28;3.85;;;20.70;28.30;;;;;;5045333;28;20039;-52
2023/04/04 07:19:35;;;;;;;4.45;3.13;;;20.70;28.20;;;;;;5047764;28;20040;-47
2023/04/04 07:22:00;;;;;;;6.03;3.55;;;20.80;28.20;;;;;;5056714;28;20020;-51
2023/04/04 07:24:26;;;;;;;8.05;4.22;;;20.70;28.10;;;;;;5061056;28;20029;-47
2023/04/04 07:26:52;;;;;;;5.90;3.92;;;20.80;28.20;;;;;;5062318;28;20060;-46
2023/04/04 07:29:20;;;;;;;5.78;3.90;;;20.70;28.10;;;;;;5059710;28;20452;-47
2023/04/04 07:31:46;;;;;;;5.85;4.13;;;20.70;28.10;;;;;;5059132;28;20419;-49
2023/04/04 07:34:11;;;;;;;5.97;3.55;;;20.80;28.10;;;;;;5046089;28;20153;-50
2023/04/04 07:36:37;;;;;;;6.43;4.28;;;20.80;28.00;;;;;;5046502;28;20025;-48
2023/04/04 07:39:03;;;;;;;6.85;3.88;;;20.70;28.00;;;;;;5043640;28;20033;-47
2023/04/04 07:41:29;;;;;;;8.25;4.00;;;20.70;28.00;;;;;;5048138;28;20044;-50
2023/04/04 07:43:55;;;;;;;6.50;3.83;;;20.80;28.00;;;;;;5053517;28;20045;-49
2023/04/04 07:46:21;;;;;;;7.13;4.00;;;20.80;28.10;;;;;;5056945;28;20073;-51
2023/04/04 07:48:47;;;;;;;5.72;3.97;;;20.80;28.00;;;;;;5043092;28;20109;-50
2023/04/04 07:51:12;;;;;;;5.78;3.58;;;20.80;28.00;;;;;;5037638;28;20061;-47
2023/04/04 07:53:38;;;;;;;5.88;3.75;;;20.80;28.00;;;;;;5041793;28;20021;-51
2023/04/04 07:56:07;;;;;;;6.38;3.88;;;20.70;27.90;;;;;;5044313;28;20026;-54
2023/04/04 07:58:33;;;;;;;5.20;4.05;;;20.70;27.90;;;;;;5033560;28;20148;-53
2023/04/04 08:01:00;;;;;;;7.18;5.00;;;20.80;27.90;;;;;;5036193;28;20330;-47
2023/04/04 08:03:26;;;;;;;10.75;7.20;;;20.70;28.10;;;;;;5047423;28;20134;-46
2023/04/04 08:05:52;;;;;;;11.77;7.07;;;20.70;28.20;;;;;;5057977;28;20119;-48
2023/04/04 08:08:18;;;;;;;10.85;7.18;;;20.70;28.30;;;;;;5056681;28;20038;-47
2023/04/04 08:10:45;;;;;;;11.15;7.07;;;20.70;28.20;;;;;;5064960;28;20071;-45
2023/04/04 08:13:11;;;;;;;10.02;6.63;;;20.70;28.20;;;;;;5059950;28;20025;-47
2023/04/04 08:15:38;;;;;;;9.60;6.50;;;20.70;28.10;;;;;;5058911;28;20021;-50
2023/04/04 08:18:04;;;;;;;8.77;6.20;;;20.70;28.10;;;;;;5055849;28;20486;-48
2023/04/04 08:20:30;;;;;;;9.40;6.03;;;20.80;28.10;;;;;;5064042;28;20025;-50
2023/04/04 08:22:57;;;;;;;8.45;5.65;;;20.70;28.00;;;;;;5062651;28;20056;-47
2023/04/04 08:25:23;;;;;;;9.80;6.47;;;20.80;27.90;;;;;;5063235;28;20041;-45
2023/04/04 08:27:49;;;;;;;7.38;5.55;;;20.70;27.90;;;;;;5063420;28;20115;-46
2023/04/04 08:30:16;;;;;;;8.85;5.70;;;20.70;27.90;;;;;;5063824;28;20032;-47
2023/04/04 08:32:44;;;;;;;7.15;5.28;;;20.80;27.80;;;;;;5059922;28;20463;-47
2023/04/04 08:35:11;;;;;;;8.45;5.50;;;20.70;27.80;;;;;;5061672;28;20073;-52
2023/04/04 08:37:38;;;;;;;6.20;4.70;;;20.70;27.70;;;;;;5061306;28;20461;-50
2023/04/04 08:40:05;;;;;;;7.15;4.10;;;20.70;27.70;;;;;;5061661;28;20085;-50
2023/04/04 08:42:35;;;;;;;8.18;4.75;;;20.70;27.60;;;;;;5059934;28;20033;-51
2023/04/04 08:45:03;;;;;;;7.63;4.80;;;20.70;27.70;;;;;;5062085;28;20029;-51
2023/04/04 08:47:34;;;;;;;5.82;4.32;;;20.70;27.60;;;;;;5061562;28;20043;-46
2023/04/04 08:50:06;;;;;;;7.13;4.50;;;20.80;27.70;;;;;;5062865;28;20028;-51
2023/04/04 08:52:34;;;;;;;6.47;4.45;;;20.70;27.50;;;;;;5059893;28;20032;-45
2023/04/04 08:55:01;;;;;;;6.93;4.15;;;20.70;27.50;;;;;;5062048;28;20449;-47
2023/04/04 08:57:28;;;;;;;6.07;4.30;;;20.80;27.50;;;;;;5063280;28;20371;-51
2023/04/04 08:59:54;;;;;;;5.43;3.75;;;20.80;27.50;;;;;;5060073;28;20072;-47
2023/04/04 09:02:36;;;;;;;5.95;3.75;;;20.80;27.40;;;;;;5061388;28;20028;-45
2023/04/04 09:05:02;;;;;;;5.93;4.43;;;20.80;27.40;;;;;;5060346;28;20107;-47
2023/04/04 09:07:29;;;;;;;5.88;4.10;;;20.90;27.30;;;;;;5062548;28;20516;-47
2023/04/04 09:09:56;;;;;;;6.60;4.40;;;20.90;27.30;;;;;;5062585;28;20499;-50
2023/04/04 09:12:23;;;;;;;5.30;3.92;;;20.90;27.20;;;;;;5060577;28;20021;-44
2023/04/04 09:14:50;;;;;;;5.85;3.75;;;20.90;27.20;;;;;;5062724;28;20029;-50
2023/04/04 09:17:17;;;;;;;8.15;4.55;;;20.90;27.20;;;;;;5060038;28;20035;-50
2023/04/04 09:19:43;;;;;;;6.18;3.97;;;20.90;27.10;;;;;;5063511;28;20029;-45
2023/04/04 09:22:09;;;;;;;6.32;3.78;;;20.90;27.10;;;;;;5062574;28;20093;-47
2023/04/04 09:24:42;;;;;;;5.70;4.28;;;20.90;27.10;;;;;;5061793;28;20042;-50
2023/04/04 09:27:10;;;;;;;6.25;4.13;;;20.90;27.00;;;;;;5060143;28;20086;-47
2023/04/04 09:29:39;;;;;;;7.32;4.63;;;20.90;27.00;;;;;;5064660;28;20074;-52
2023/04/04 09:32:09;;;;;;;5.85;4.10;;;20.90;27.00;;;;;;5059131;28;20044;-47
2023/04/04 09:34:36;;;;;;;6.82;4.30;;;20.90;27.00;;;;;;5058568;28;20375;-45
2023/04/04 09:37:04;;;;;;;7.65;4.30;;;20.90;26.90;;;;;;5060867;28;20032;-48
2023/04/04 09:39:31;;;;;;;6.88;4.45;;;20.90;26.90;;;;;;5061194;28;20173;-48
2023/04/04 09:41:57;;;;;;;7.22;4.60;;;20.90;26.90;;;;;;5062613;28;20452;-47
2023/04/04 09:44:24;;;;;;;6.25;4.18;;;20.90;26.90;;;;;;5060311;28;20040;-48
2023/04/04 09:46:53;;;;;;;5.38;4.00;;;20.90;26.80;;;;;;5064435;28;20075;-49
2023/04/04 09:49:22;;;;;;;6.45;3.90;;;20.90;26.80;;;;;;5059859;28;20021;-50
2023/04/04 09:51:53;;;;;;;6.10;3.60;;;20.90;26.80;;;;;;5060133;28;20024;-50
2023/04/04 09:54:22;;;;;;;6.20;3.90;;;20.90;26.80;;;;;;5062166;28;20033;-49
2023/04/04 09:56:49;;;;;;;7.15;4.57;;;20.90;26.80;;;;;;5063886;28;20448;-47
2023/04/04 09:59:17;;;;;;;5.68;3.78;;;20.90;26.80;;;;;;5065814;28;20059;-47
2023/04/04 10:01:44;;;;;;;6.15;4.20;;;20.90;26.80;;;;;;5057539;28;20115;-53
2023/04/04 10:04:10;;;;;;;7.32;4.03;;;20.90;26.80;;;;;;5060172;28;20060;-49
2023/04/04 10:06:37;;;;;;;7.93;4.47;;;20.90;26.80;;;;;;5064104;28;20078;-52
2023/04/04 10:09:04;;;;;;;9.05;5.40;;;20.90;26.90;;;;;;5060544;28;20059;-49
2023/04/04 10:11:32;;;;;;;6.25;4.65;;;20.90;27.00;;;;;;5044902;28;20056;-51
2023/04/04 10:13:59;;;;;;;7.25;5.05;;;20.90;27.00;;;;;;5061337;28;20401;-53
2023/04/04 10:16:26;;;;;;;12.18;8.60;;;20.90;27.00;;;;;;5057366;28;20482;-50
2023/04/04 10:18:56;;;;;;;15.02;10.77;;;20.90;27.20;;;;;;5052275;28;20029;-51
2023/04/04 10:21:24;;;;;;;14.02;9.90;;;21.00;27.70;;;;;;5054871;28;20032;-53
2023/04/04 10:23:53;;;;;;;14.52;10.20;;;21.00;27.80;;;;;;5043622;28;20066;-50
2023/04/04 10:26:24;;;;;;;12.98;8.90;;;21.00;27.80;;;;;;5041242;28;20044;-47
2023/04/04 10:28:57;;;;;;;13.95;9.43;;;21.00;27.80;;;;;;5037279;28;20092;-54
2023/04/04 10:31:27;;;;;;;13.32;9.52;;;21.00;27.70;;;;;;5043479;28;20460;-50
2023/04/04 10:34:16;;;;;;;28.83;21.00;;;21.00;27.80;;;;;;5042482;28;20028;-46
2023/04/04 10:36:49;;;;;;;32.33;26.23;;;21.00;28.50;;;;;;5044353;28;20040;-48
2023/04/04 10:39:36;;;;;;;34.45;25.80;;;20.90;29.40;;;;;;5037647;28;20029;-50
2023/04/04 10:42:06;;;;;;;33.63;25.35;;;21.00;30.00;;;;;;5050066;28;20060;-48
2023/04/04 10:44:33;;;;;;;29.67;22.45;;;21.00;30.20;;;;;;5042654;28;20461;-48
2023/04/04 10:47:13;;;;;;;27.05;20.30;;;21.00;30.30;;;;;;5042701;28;20029;-45
2023/04/04 10:49:43;;;;;;;23.10;17.88;;;21.00;30.10;;;;;;5037092;28;20470;-47
2023/04/04 10:52:12;;;;;;;23.45;17.42;;;21.00;30.20;;;;;;5039372;28;20480;-48
2023/04/04 10:54:40;;;;;;;24.15;17.55;;;21.00;30.80;;;;;;5036217;28;20051;-47
2023/04/04 10:57:06;;;;;;;22.33;16.98;;;21.00;30.20;;;;;;5037131;28;20029;-48
2023/04/04 10:59:32;;;;;;;22.23;17.10;;;21.10;30.30;;;;;;5040891;28;20640;-48
2023/04/04 11:01:59;;;;;;;22.50;16.55;;;21.10;30.20;;;;;;5043706;28;20036;-44
2023/04/04 11:04:33;;;;;;;22.10;16.27;;;21.10;30.20;;;;;;5041151;28;20031;-45
2023/04/04 11:07:18;;;;;;;19.42;15.15;;;21.10;30.20;;;;;;5044336;28;20125;-48
2023/04/04 11:10:00;;;;;;;20.08;15.18;;;21.10;30.10;;;;;;5043181;28;20044;-47
2023/04/04 11:12:35;;;;;;;23.15;15.45;;;21.10;30.10;;;;;;5040652;28;20468;-49
2023/04/04 11:15:11;;;;;;;20.83;14.25;;;21.10;30.20;;;;;;5040369;28;20025;-46
2023/04/04 11:17:43;;;;;;;20.15;14.52;;;21.10;30.10;;;;;;5043949;28;20029;-47
2023/04/04 11:20:17;;;;;;;22.25;15.68;;;21.20;30.10;;;;;;5038091;28;20116;-47
2023/04/04 11:22:44;;;;;;;20.65;14.80;;;21.20;30.10;;;;;;5040195;28;20445;-48
2023/04/04 11:25:29;;;;;;;21.15;15.02;;;21.20;30.10;;;;;;5047825;28;20036;-49
2023/04/04 11:27:58;;;;;;;20.30;14.75;;;21.20;30.20;;;;;;5047068;28;20462;-50
2023/04/04 11:30:27;;;;;;;21.40;14.98;;;21.20;30.10;;;;;;5035715;28;20653;-50
2023/04/04 11:32:58;;;;;;;20.50;13.98;;;21.20;30.10;;;;;;5037309;28;20044;-45
2023/04/04 11:35:24;;;;;;;19.60;13.90;;;21.20;30.10;;;;;;5036746;28;20025;-47
2023/04/04 11:37:51;;;;;;;17.60;13.35;;;21.20;30.00;;;;;;5035301;28;20085;-51
2023/04/04 11:40:17;;;;;;;18.05;13.95;;;21.20;30.00;;;;;;5035860;28;20102;-45
2023/04/04 11:42:43;;;;;;;19.10;14.18;;;21.20;30.00;;;;;;5039107;28;20472;-47
2023/04/04 11:45:17;;;;;;;20.35;14.05;;;21.20;30.00;;;;;;5041116;28;20116;-48
2023/04/04 11:47:47;;;;;;;18.50;14.32;;;21.20;30.10;;;;;;5034728;28;20026;-47
2023/04/04 11:50:15;;;;;;;19.05;14.75;;;21.20;30.20;;;;;;5034118;28;20033;-54
2023/04/04 11:52:44;;;;;;;19.70;14.23;;;21.20;30.20;;;;;;5037416;28;20048;-53
2023/04/04 11:55:20;;;;;;;22.17;14.52;;;21.20;30.40;;;;;;5036428;28;20464;-50
2023/04/04 11:57:47;;;;;;;19.38;14.75;;;21.30;30.50;;;;;;5037368;28;20034;-51
2023/04/04 12:00:34;;;;;;;20.40;15.70;;;21.30;30.70;;;;;;5035178;28;20152;-56
2023/04/04 12:03:00;;;;;;;21.67;16.15;;;21.30;30.80;;;;;;5035804;28;20029;-54
2023/04/04 12:05:27;;;;;;;22.77;16.58;;;21.30;30.90;;;;;;5035556;28;20041;-54
2023/04/04 12:07:53;;;;;;;21.08;16.38;;;21.30;31.00;;;;;;5037217;28;20091;-51
2023/04/04 12:10:21;;;;;;;24.23;16.85;;;21.40;31.00;;;;;;5034970;28;20033;-47
2023/04/04 12:12:46;;;;;;;22.13;16.15;;;21.40;31.00;;;;;;5039475;28;20093;-49
2023/04/04 12:15:16;;;;;;;27.98;17.50;;;21.40;31.00;;;;;;5036773;28;20037;-51
2023/04/04 12:17:43;;;;;;;22.33;17.65;;;21.40;31.00;;;;;;5034641;28;20029;-48
2023/04/04 12:20:15;;;;;;;24.58;18.35;;;21.40;31.10;;;;;;5035565;28;20154;-48
2023/04/04 12:22:40;;;;;;;26.88;18.83;;;21.40;31.00;;;;;;5034540;28;20021;-53
2023/04/04 12:25:07;;;;;;;23.80;17.45;;;21.40;31.00;;;;;;5035664;28;20476;-53
2023/04/04 12:27:33;;;;;;;24.55;18.45;;;21.40;31.60;;;;;;5050226;28;20504;-51
2023/04/04 12:30:00;;;;;;;24.08;18.77;;;21.50;31.00;;;;;;5041178;28;20345;-51
2023/04/04 12:32:26;;;;;;;29.20;19.23;;;21.50;30.90;;;;;;5033502;28;20029;-47
2023/04/04 12:34:58;;;;;;;27.13;20.05;;;21.50;30.90;;;;;;5039557;28;20029;-54
2023/04/04 12:37:27;;;;;;;25.92;19.15;;;21.50;30.90;;;;;;5038178;28;20445;-52
2023/04/04 12:39:55;;;;;;;24.52;19.33;;;21.50;30.80;;;;;;5041071;28;20178;-51
2023/04/04 12:42:22;;;;;;;23.25;18.38;;;21.50;30.80;;;;;;5038135;28;20310;-53
2023/04/04 12:44:52;;;;;;;28.90;20.80;;;21.50;30.70;;;;;;5038482;28;20505;-51
2023/04/04 12:47:22;;;;;;;27.27;20.35;;;21.60;30.70;;;;;;5046900;28;20056;-49